sensor_id;sensor_type;location;lat;lon;timestamp;temperature;humidity
7117;DHT22;3600;48.568;7.870;2022-09-14T00:01:16;20.50;99.90
7117;DHT22;3600;48.568;7.870;2022-09-14T00:03:54;20.50;99.90
7117;DHT22;3600;48.568;7.870;2022-09-14T00:06:21;20.30;99.90
7117;DHT22;3600;48.568;7.870;2022-09-14T00:08:50;20.20;99.90
7117;DHT22;3600;48.568;7.870;2022-09-14T00:11:18;20.20;99.90
7117;DHT22;3600;48.568;7.870;2022-09-14T00:13:46;20.20;99.90
7117;DHT22;3600;48.568;7.870;2022-09-14T00:16:19;20.30;99.90
7117;DHT22;3600;48.568;7.870;2022-09-14T00:18:51;20.20;99.90
7117;DHT22;3600;48.568;7.870;2022-09-14T00:21:18;20.40;99.90
7117;DHT22;3600;48.568;7.870;2022-09-14T00:23:45;20.20;99.90
7117;DHT22;3600;48.568;7.870;2022-09-14T00:26:14;20.20;99.90
7117;DHT22;3600;48.568;7.870;2022-09-14T00:28:47;20.00;99.90
7117;DHT22;3600;48.568;7.870;2022-09-14T00:31:15;20.00;99.90
7117;DHT22;3600;48.568;7.870;2022-09-14T00:33:43;19.90;99.90
7117;DHT22;3600;48.568;7.870;2022-09-14T00:36:13;19.90;99.90
7117;DHT22;3600;48.568;7.870;2022-09-14T00:38:41;20.00;99.90
7117;DHT22;3600;48.568;7.870;2022-09-14T00:41:11;20.10;99.90
7117;DHT22;3600;48.568;7.870;2022-09-14T00:46:26;20.10;99.90
7117;DHT22;3600;48.568;7.870;2022-09-14T00:48:55;20.20;99.90
7117;DHT22;3600;48.568;7.870;2022-09-14T00:51:23;20.10;99.90
7117;DHT22;3600;48.568;7.870;2022-09-14T00:53:50;20.10;99.90
7117;DHT22;3600;48.568;7.870;2022-09-14T00:56:17;20.10;99.90
7117;DHT22;3600;48.568;7.870;2022-09-14T00:58:47;20.10;99.90
7117;DHT22;3600;48.568;7.870;2022-09-14T01:01:15;20.10;99.90
7117;DHT22;3600;48.568;7.870;2022-09-14T01:03:42;20.00;99.90
7117;DHT22;3600;48.568;7.870;2022-09-14T01:06:14;20.00;99.90
7117;DHT22;3600;48.568;7.870;2022-09-14T01:11:50;19.40;99.90
7117;DHT22;3600;48.568;7.870;2022-09-14T01:14:30;19.10;99.90
7117;DHT22;3600;48.568;7.870;2022-09-14T01:17:11;19.50;99.90
7117;DHT22;3600;48.568;7.870;2022-09-14T01:25:54;19.90;99.90
7117;DHT22;3600;48.568;7.870;2022-09-14T01:28:04;19.60;99.90
7117;DHT22;3600;48.568;7.870;2022-09-14T01:30:31;19.00;99.90
7117;DHT22;3600;48.568;7.870;2022-09-14T01:33:23;18.60;99.90
7117;DHT22;3600;48.568;7.870;2022-09-14T01:35:56;18.50;99.90
7117;DHT22;3600;48.568;7.870;2022-09-14T01:38:32;18.30;99.90
7117;DHT22;3600;48.568;7.870;2022-09-14T01:41:03;18.20;99.90
7117;DHT22;3600;48.568;7.870;2022-09-14T01:43:35;18.20;99.90
7117;DHT22;3600;48.568;7.870;2022-09-14T01:46:17;18.30;99.90
7117;DHT22;3600;48.568;7.870;2022-09-14T01:48:45;18.60;99.90
7117;DHT22;3600;48.568;7.870;2022-09-14T01:51:19;18.60;99.90
7117;DHT22;3600;48.568;7.870;2022-09-14T01:53:53;18.50;99.90
7117;DHT22;3600;48.568;7.870;2022-09-14T01:56:25;18.50;99.90
7117;DHT22;3600;48.568;7.870;2022-09-14T02:01:29;18.80;99.90
7117;DHT22;3600;48.568;7.870;2022-09-14T02:04:04;18.90;99.90
7117;DHT22;3600;48.568;7.870;2022-09-14T02:06:39;19.00;99.90
7117;DHT22;3600;48.568;7.870;2022-09-14T02:09:11;18.70;99.90
7117;DHT22;3600;48.568;7.870;2022-09-14T02:11:39;18.80;99.90
7117;DHT22;3600;48.568;7.870;2022-09-14T02:14:06;18.90;99.90
7117;DHT22;3600;48.568;7.870;2022-09-14T02:16:34;19.10;99.90
7117;DHT22;3600;48.568;7.870;2022-09-14T02:19:01;19.20;99.90
7117;DHT22;3600;48.568;7.870;2022-09-14T02:21:30;19.30;99.90
7117;DHT22;3600;48.568;7.870;2022-09-14T02:23:58;19.20;99.90
7117;DHT22;3600;48.568;7.870;2022-09-14T02:26:26;18.90;99.90
7117;DHT22;3600;48.568;7.870;2022-09-14T02:28:54;18.80;99.90
7117;DHT22;3600;48.568;7.870;2022-09-14T02:45:50;19.20;99.90
7117;DHT22;3600;48.568;7.870;2022-09-14T02:48:32;19.40;99.90
7117;DHT22;3600;48.568;7.870;2022-09-14T02:51:25;19.40;99.90
7117;DHT22;3600;48.568;7.870;2022-09-14T02:54:07;19.40;99.90
7117;DHT22;3600;48.568;7.870;2022-09-14T02:56:36;19.40;99.90
7117;DHT22;3600;48.568;7.870;2022-09-14T02:59:03;19.40;99.90
7117;DHT22;3600;48.568;7.870;2022-09-14T03:01:30;19.40;99.90
7117;DHT22;3600;48.568;7.870;2022-09-14T03:03:57;19.40;99.90
7117;DHT22;3600;48.568;7.870;2022-09-14T03:06:24;19.20;99.90
7117;DHT22;3600;48.568;7.870;2022-09-14T03:08:51;19.20;99.90
7117;DHT22;3600;48.568;7.870;2022-09-14T03:11:18;19.30;99.90
7117;DHT22;3600;48.568;7.870;2022-09-14T03:13:45;19.30;99.90
7117;DHT22;3600;48.568;7.870;2022-09-14T03:16:14;19.30;99.90
7117;DHT22;3600;48.568;7.870;2022-09-14T03:18:41;19.30;99.90
7117;DHT22;3600;48.568;7.870;2022-09-14T03:21:10;19.40;99.90
7117;DHT22;3600;48.568;7.870;2022-09-14T03:23:39;19.40;99.90
7117;DHT22;3600;48.568;7.870;2022-09-14T03:26:14;19.30;99.90
7117;DHT22;3600;48.568;7.870;2022-09-14T03:28:41;19.40;99.90
7117;DHT22;3600;48.568;7.870;2022-09-14T03:31:10;19.40;99.90
7117;DHT22;3600;48.568;7.870;2022-09-14T03:33:38;19.40;99.90
7117;DHT22;3600;48.568;7.870;2022-09-14T03:36:18;19.40;99.90
7117;DHT22;3600;48.568;7.870;2022-09-14T03:38:47;19.40;99.90
7117;DHT22;3600;48.568;7.870;2022-09-14T03:41:14;19.40;99.90
7117;DHT22;3600;48.568;7.870;2022-09-14T03:43:42;19.40;99.90
7117;DHT22;3600;48.568;7.870;2022-09-14T03:46:14;19.30;99.90
7117;DHT22;3600;48.568;7.870;2022-09-14T03:48:41;19.30;99.90
7117;DHT22;3600;48.568;7.870;2022-09-14T03:51:09;19.20;99.90
7117;DHT22;3600;48.568;7.870;2022-09-14T03:53:37;19.30;99.90
7117;DHT22;3600;48.568;7.870;2022-09-14T03:56:13;19.30;99.90
7117;DHT22;3600;48.568;7.870;2022-09-14T03:58:41;19.30;99.90
7117;DHT22;3600;48.568;7.870;2022-09-14T04:01:13;19.30;99.90
7117;DHT22;3600;48.568;7.870;2022-09-14T04:03:41;19.40;99.90
7117;DHT22;3600;48.568;7.870;2022-09-14T04:06:09;19.40;99.90
7117;DHT22;3600;48.568;7.870;2022-09-14T04:08:38;19.40;99.90
7117;DHT22;3600;48.568;7.870;2022-09-14T04:11:18;19.40;99.90
7117;DHT22;3600;48.568;7.870;2022-09-14T04:13:46;19.40;99.90
7117;DHT22;3600;48.568;7.870;2022-09-14T04:16:14;19.40;99.90
7117;DHT22;3600;48.568;7.870;2022-09-14T04:18:41;19.40;99.90
7117;DHT22;3600;48.568;7.870;2022-09-14T04:21:12;19.40;99.90
7117;DHT22;3600;48.568;7.870;2022-09-14T04:23:39;19.40;99.90
7117;DHT22;3600;48.568;7.870;2022-09-14T04:26:27;19.40;99.90
7117;DHT22;3600;48.568;7.870;2022-09-14T04:28:55;19.30;99.90
7117;DHT22;3600;48.568;7.870;2022-09-14T04:31:23;19.10;99.90
7117;DHT22;3600;48.568;7.870;2022-09-14T04:33:53;19.10;99.90
7117;DHT22;3600;48.568;7.870;2022-09-14T04:36:23;19.00;99.90
7117;DHT22;3600;48.568;7.870;2022-09-14T04:38:54;18.90;99.90
7117;DHT22;3600;48.568;7.870;2022-09-14T04:41:23;18.80;99.90
7117;DHT22;3600;48.568;7.870;2022-09-14T04:43:51;18.80;99.90
7117;DHT22;3600;48.568;7.870;2022-09-14T04:46:20;18.80;99.90
7117;DHT22;3600;48.568;7.870;2022-09-14T04:48:48;18.90;99.90
7117;DHT22;3600;48.568;7.870;2022-09-14T04:51:17;19.00;99.90
7117;DHT22;3600;48.568;7.870;2022-09-14T04:53:46;19.00;99.90
7117;DHT22;3600;48.568;7.870;2022-09-14T04:56:13;19.10;99.90
7117;DHT22;3600;48.568;7.870;2022-09-14T04:58:46;19.20;99.90
7117;DHT22;3600;48.568;7.870;2022-09-14T05:01:20;19.10;99.90
7117;DHT22;3600;48.568;7.870;2022-09-14T05:03:47;19.10;99.90
7117;DHT22;3600;48.568;7.870;2022-09-14T05:06:17;19.20;99.90
7117;DHT22;3600;48.568;7.870;2022-09-14T05:08:45;19.30;99.90
7117;DHT22;3600;48.568;7.870;2022-09-14T05:11:15;19.10;99.90
7117;DHT22;3600;48.568;7.870;2022-09-14T05:13:42;18.90;99.90
7117;DHT22;3600;48.568;7.870;2022-09-14T05:16:20;19.00;99.90
7117;DHT22;3600;48.568;7.870;2022-09-14T05:18:49;18.90;99.90
7117;DHT22;3600;48.568;7.870;2022-09-14T05:21:18;18.90;99.90
7117;DHT22;3600;48.568;7.870;2022-09-14T05:23:45;19.00;99.90
7117;DHT22;3600;48.568;7.870;2022-09-14T05:26:12;19.10;99.90
7117;DHT22;3600;48.568;7.870;2022-09-14T05:28:39;19.10;99.90
7117;DHT22;3600;48.568;7.870;2022-09-14T05:31:08;19.20;99.90
7117;DHT22;3600;48.568;7.870;2022-09-14T05:33:35;19.10;99.90
7117;DHT22;3600;48.568;7.870;2022-09-14T05:36:04;19.10;99.90
7117;DHT22;3600;48.568;7.870;2022-09-14T05:38:33;19.20;99.90
7117;DHT22;3600;48.568;7.870;2022-09-14T05:41:00;19.30;99.90
7117;DHT22;3600;48.568;7.870;2022-09-14T05:43:28;19.40;99.90
7117;DHT22;3600;48.568;7.870;2022-09-14T05:45:55;19.40;99.90
7117;DHT22;3600;48.568;7.870;2022-09-14T05:48:22;19.50;99.90
7117;DHT22;3600;48.568;7.870;2022-09-14T05:50:57;19.50;99.90
7117;DHT22;3600;48.568;7.870;2022-09-14T05:53:24;19.50;99.90
7117;DHT22;3600;48.568;7.870;2022-09-14T05:56:05;19.50;99.90
7117;DHT22;3600;48.568;7.870;2022-09-14T05:58:32;19.50;99.90
7117;DHT22;3600;48.568;7.870;2022-09-14T06:01:11;19.50;99.90
7117;DHT22;3600;48.568;7.870;2022-09-14T06:03:39;19.50;99.90
7117;DHT22;3600;48.568;7.870;2022-09-14T06:06:07;19.50;99.90
7117;DHT22;3600;48.568;7.870;2022-09-14T06:08:34;19.60;99.90
7117;DHT22;3600;48.568;7.870;2022-09-14T06:11:08;19.70;99.90
7117;DHT22;3600;48.568;7.870;2022-09-14T06:13:36;19.70;99.90
7117;DHT22;3600;48.568;7.870;2022-09-14T06:16:04;19.70;99.90
7117;DHT22;3600;48.568;7.870;2022-09-14T06:18:32;19.70;99.90
7117;DHT22;3600;48.568;7.870;2022-09-14T06:20:59;19.80;99.90
7117;DHT22;3600;48.568;7.870;2022-09-14T06:23:30;19.80;99.90
7117;DHT22;3600;48.568;7.870;2022-09-14T06:25:58;19.80;99.90
7117;DHT22;3600;48.568;7.870;2022-09-14T06:28:26;19.80;99.90
7117;DHT22;3600;48.568;7.870;2022-09-14T06:30:53;19.80;99.90
7117;DHT22;3600;48.568;7.870;2022-09-14T06:33:20;19.80;99.90
7117;DHT22;3600;48.568;7.870;2022-09-14T06:38:28;19.80;99.90
7117;DHT22;3600;48.568;7.870;2022-09-14T06:40:57;19.80;99.90
7117;DHT22;3600;48.568;7.870;2022-09-14T06:43:26;19.80;99.90
7117;DHT22;3600;48.568;7.870;2022-09-14T06:46:00;19.90;99.90
7117;DHT22;3600;48.568;7.870;2022-09-14T06:48:28;19.90;99.90
7117;DHT22;3600;48.568;7.870;2022-09-14T06:50:56;19.90;99.90
7117;DHT22;3600;48.568;7.870;2022-09-14T06:53:23;19.90;99.90
7117;DHT22;3600;48.568;7.870;2022-09-14T06:55:50;20.00;99.90
7117;DHT22;3600;48.568;7.870;2022-09-14T06:58:16;20.00;99.90
7117;DHT22;3600;48.568;7.870;2022-09-14T07:00:43;20.10;99.90
7117;DHT22;3600;48.568;7.870;2022-09-14T07:03:10;20.10;99.90
7117;DHT22;3600;48.568;7.870;2022-09-14T07:05:37;20.10;99.90
7117;DHT22;3600;48.568;7.870;2022-09-14T07:08:04;20.10;99.90
7117;DHT22;3600;48.568;7.870;2022-09-14T07:10:37;20.20;99.90
7117;DHT22;3600;48.568;7.870;2022-09-14T07:13:04;20.20;99.90
7117;DHT22;3600;48.568;7.870;2022-09-14T07:15:31;20.30;99.90
7117;DHT22;3600;48.568;7.870;2022-09-14T07:17:58;20.30;99.90
7117;DHT22;3600;48.568;7.870;2022-09-14T07:20:25;20.30;99.90
7117;DHT22;3600;48.568;7.870;2022-09-14T07:22:52;20.40;99.90
7117;DHT22;3600;48.568;7.870;2022-09-14T07:25:19;20.40;99.90
7117;DHT22;3600;48.568;7.870;2022-09-14T07:27:45;20.40;99.90
7117;DHT22;3600;48.568;7.870;2022-09-14T07:30:12;20.50;99.90
7117;DHT22;3600;48.568;7.870;2022-09-14T07:32:39;20.50;99.90
7117;DHT22;3600;48.568;7.870;2022-09-14T07:35:06;20.60;99.90
7117;DHT22;3600;48.568;7.870;2022-09-14T07:37:35;20.70;99.90
7117;DHT22;3600;48.568;7.870;2022-09-14T07:40:01;20.70;99.90
7117;DHT22;3600;48.568;7.870;2022-09-14T07:42:30;20.80;99.90
7117;DHT22;3600;48.568;7.870;2022-09-14T07:44:57;20.80;99.90
7117;DHT22;3600;48.568;7.870;2022-09-14T07:47:24;20.80;99.90
7117;DHT22;3600;48.568;7.870;2022-09-14T07:49:51;20.90;99.90
7117;DHT22;3600;48.568;7.870;2022-09-14T07:52:18;20.90;99.90
7117;DHT22;3600;48.568;7.870;2022-09-14T07:54:45;21.00;99.90
7117;DHT22;3600;48.568;7.870;2022-09-14T07:57:12;21.10;99.90
7117;DHT22;3600;48.568;7.870;2022-09-14T07:59:39;21.10;99.90
7117;DHT22;3600;48.568;7.870;2022-09-14T08:02:07;21.20;99.90
7117;DHT22;3600;48.568;7.870;2022-09-14T08:04:34;21.30;99.90
7117;DHT22;3600;48.568;7.870;2022-09-14T08:07:03;21.40;99.90
7117;DHT22;3600;48.568;7.870;2022-09-14T08:09:30;21.40;99.90
7117;DHT22;3600;48.568;7.870;2022-09-14T08:11:56;21.50;99.90
7117;DHT22;3600;48.568;7.870;2022-09-14T08:14:24;21.60;99.90
7117;DHT22;3600;48.568;7.870;2022-09-14T08:16:50;21.60;99.90
7117;DHT22;3600;48.568;7.870;2022-09-14T08:19:18;21.70;99.90
7117;DHT22;3600;48.568;7.870;2022-09-14T08:21:46;21.80;99.90
7117;DHT22;3600;48.568;7.870;2022-09-14T08:24:16;21.90;99.90
7117;DHT22;3600;48.568;7.870;2022-09-14T08:26:43;21.90;99.90
7117;DHT22;3600;48.568;7.870;2022-09-14T08:29:12;22.00;99.90
7117;DHT22;3600;48.568;7.870;2022-09-14T08:31:39;22.00;99.90
7117;DHT22;3600;48.568;7.870;2022-09-14T08:34:07;22.10;99.90
7117;DHT22;3600;48.568;7.870;2022-09-14T08:36:36;22.10;99.90
7117;DHT22;3600;48.568;7.870;2022-09-14T08:39:05;22.10;99.90
7117;DHT22;3600;48.568;7.870;2022-09-14T08:44:34;22.10;99.90
7117;DHT22;3600;48.568;7.870;2022-09-14T08:47:08;22.20;99.90
7117;DHT22;3600;48.568;7.870;2022-09-14T08:50:03;22.30;99.90
7117;DHT22;3600;48.568;7.870;2022-09-14T08:52:34;22.30;99.90
7117;DHT22;3600;48.568;7.870;2022-09-14T08:57:52;22.40;99.90
7117;DHT22;3600;48.568;7.870;2022-09-14T09:00:24;22.40;99.90
7117;DHT22;3600;48.568;7.870;2022-09-14T09:06:03;22.50;99.90
7117;DHT22;3600;48.568;7.870;2022-09-14T09:08:39;22.50;99.90
7117;DHT22;3600;48.568;7.870;2022-09-14T09:11:13;22.70;99.90
7117;DHT22;3600;48.568;7.870;2022-09-14T09:13:41;22.80;99.90
7117;DHT22;3600;48.568;7.870;2022-09-14T09:16:09;22.90;99.90
7117;DHT22;3600;48.568;7.870;2022-09-14T09:18:57;23.00;99.90
7117;DHT22;3600;48.568;7.870;2022-09-14T09:21:34;23.10;99.90
7117;DHT22;3600;48.568;7.870;2022-09-14T09:24:35;23.20;99.90
7117;DHT22;3600;48.568;7.870;2022-09-14T09:27:13;23.10;99.90
7117;DHT22;3600;48.568;7.870;2022-09-14T09:29:41;23.20;99.90
7117;DHT22;3600;48.568;7.870;2022-09-14T09:32:17;23.30;99.90
7117;DHT22;3600;48.568;7.870;2022-09-14T09:34:45;23.40;99.90
7117;DHT22;3600;48.568;7.870;2022-09-14T09:37:18;23.40;99.90
7117;DHT22;3600;48.568;7.870;2022-09-14T09:39:46;23.50;99.90
7117;DHT22;3600;48.568;7.870;2022-09-14T09:42:23;23.60;99.90
7117;DHT22;3600;48.568;7.870;2022-09-14T09:47:31;23.70;99.90
7117;DHT22;3600;48.568;7.870;2022-09-14T09:50:19;23.70;99.90
7117;DHT22;3600;48.568;7.870;2022-09-14T09:52:53;23.70;99.90
7117;DHT22;3600;48.568;7.870;2022-09-14T09:55:22;23.80;99.90
7117;DHT22;3600;48.568;7.870;2022-09-14T09:57:53;23.80;99.90
7117;DHT22;3600;48.568;7.870;2022-09-14T10:00:27;23.80;99.90
7117;DHT22;3600;48.568;7.870;2022-09-14T10:02:57;23.90;99.90
7117;DHT22;3600;48.568;7.870;2022-09-14T10:05:28;23.90;99.90
7117;DHT22;3600;48.568;7.870;2022-09-14T10:07:58;24.00;99.90
7117;DHT22;3600;48.568;7.870;2022-09-14T10:10:40;24.10;99.90
7117;DHT22;3600;48.568;7.870;2022-09-14T10:13:26;24.20;99.90
7117;DHT22;3600;48.568;7.870;2022-09-14T10:16:16;24.30;99.90
7117;DHT22;3600;48.568;7.870;2022-09-14T10:18:49;24.30;99.90
7117;DHT22;3600;48.568;7.870;2022-09-14T10:21:22;24.40;99.90
7117;DHT22;3600;48.568;7.870;2022-09-14T10:24:04;24.50;99.90
7117;DHT22;3600;48.568;7.870;2022-09-14T10:26:34;24.60;99.90
7117;DHT22;3600;48.568;7.870;2022-09-14T10:29:25;24.60;99.90
7117;DHT22;3600;48.568;7.870;2022-09-14T10:32:03;24.80;99.90
7117;DHT22;3600;48.568;7.870;2022-09-14T10:34:31;25.00;99.90
7117;DHT22;3600;48.568;7.870;2022-09-14T10:37:35;25.20;99.90
7117;DHT22;3600;48.568;7.870;2022-09-14T10:40:14;25.30;99.90
7117;DHT22;3600;48.568;7.870;2022-09-14T10:43:02;25.40;99.90
7117;DHT22;3600;48.568;7.870;2022-09-14T10:48:38;25.50;99.90
7117;DHT22;3600;48.568;7.870;2022-09-14T10:56:49;25.50;99.90
7117;DHT22;3600;48.568;7.870;2022-09-14T10:59:34;25.40;99.90
7117;DHT22;3600;48.568;7.870;2022-09-14T11:02:38;25.30;99.90
7117;DHT22;3600;48.568;7.870;2022-09-14T11:07:53;25.20;99.90
7117;DHT22;3600;48.568;7.870;2022-09-14T11:10:37;25.10;99.90
7117;DHT22;3600;48.568;7.870;2022-09-14T11:13:36;25.00;99.90
7117;DHT22;3600;48.568;7.870;2022-09-14T11:16:18;25.00;99.90
7117;DHT22;3600;48.568;7.870;2022-09-14T11:19:19;24.90;99.90
7117;DHT22;3600;48.568;7.870;2022-09-14T11:27:43;24.60;99.90
7117;DHT22;3600;48.568;7.870;2022-09-14T11:30:28;24.60;99.90
7117;DHT22;3600;48.568;7.870;2022-09-14T11:33:02;24.50;99.90
7117;DHT22;3600;48.568;7.870;2022-09-14T11:38:25;24.20;99.90
7117;DHT22;3600;48.568;7.870;2022-09-14T11:41:25;23.20;99.90
7117;DHT22;3600;48.568;7.870;2022-09-14T11:44:39;22.50;99.90
7117;DHT22;3600;48.568;7.870;2022-09-14T11:47:12;22.20;99.90
7117;DHT22;3600;48.568;7.870;2022-09-14T11:50:20;22.00;99.90
7117;DHT22;3600;48.568;7.870;2022-09-14T11:52:57;21.90;99.90
7117;DHT22;3600;48.568;7.870;2022-09-14T11:55:26;21.70;99.90
7117;DHT22;3600;48.568;7.870;2022-09-14T11:57:53;21.60;99.90
7117;DHT22;3600;48.568;7.870;2022-09-14T12:02:57;21.50;99.90
7117;DHT22;3600;48.568;7.870;2022-09-14T12:05:28;21.20;99.90
7117;DHT22;3600;48.568;7.870;2022-09-14T12:07:59;21.00;99.90
7117;DHT22;3600;48.568;7.870;2022-09-14T12:10:26;20.70;99.90
7117;DHT22;3600;48.568;7.870;2022-09-14T12:26:23;20.90;99.90
7117;DHT22;3600;48.568;7.870;2022-09-14T12:28:53;21.00;99.90
7117;DHT22;3600;48.568;7.870;2022-09-14T12:34:22;21.10;99.90
7117;DHT22;3600;48.568;7.870;2022-09-14T12:39:21;21.10;99.90
7117;DHT22;3600;48.568;7.870;2022-09-14T12:49:56;21.00;99.90
7117;DHT22;3600;48.568;7.870;2022-09-14T12:53:07;21.00;99.90
7117;DHT22;3600;48.568;7.870;2022-09-14T12:58:48;21.00;99.90
7117;DHT22;3600;48.568;7.870;2022-09-14T13:04:26;21.00;99.90
7117;DHT22;3600;48.568;7.870;2022-09-14T13:06:55;21.00;99.90
7117;DHT22;3600;48.568;7.870;2022-09-14T13:09:24;21.10;99.90
7117;DHT22;3600;48.568;7.870;2022-09-14T13:12:01;21.00;99.90
7117;DHT22;3600;48.568;7.870;2022-09-14T13:14:45;20.90;99.90
7117;DHT22;3600;48.568;7.870;2022-09-14T13:17:14;20.90;99.90
7117;DHT22;3600;48.568;7.870;2022-09-14T13:19:41;20.90;99.90
7117;DHT22;3600;48.568;7.870;2022-09-14T13:22:20;20.90;99.90
7117;DHT22;3600;48.568;7.870;2022-09-14T13:24:49;20.90;99.90
7117;DHT22;3600;48.568;7.870;2022-09-14T13:27:23;20.80;99.90
7117;DHT22;3600;48.568;7.870;2022-09-14T13:32:28;20.70;99.90
7117;DHT22;3600;48.568;7.870;2022-09-14T13:34:56;20.70;99.90
7117;DHT22;3600;48.568;7.870;2022-09-14T13:37:24;20.70;99.90
7117;DHT22;3600;48.568;7.870;2022-09-14T13:39:53;20.70;99.90
7117;DHT22;3600;48.568;7.870;2022-09-14T13:42:22;20.60;99.90
7117;DHT22;3600;48.568;7.870;2022-09-14T13:44:51;20.60;99.90
7117;DHT22;3600;48.568;7.870;2022-09-14T13:47:21;20.60;99.90
7117;DHT22;3600;48.568;7.870;2022-09-14T13:49:51;20.60;99.90
7117;DHT22;3600;48.568;7.870;2022-09-14T14:00:55;20.60;99.90
7117;DHT22;3600;48.568;7.870;2022-09-14T14:03:46;20.60;99.90
7117;DHT22;3600;48.568;7.870;2022-09-14T14:06:28;20.60;99.90
7117;DHT22;3600;48.568;7.870;2022-09-14T14:09:07;20.60;99.90
7117;DHT22;3600;48.568;7.870;2022-09-14T14:11:43;20.60;99.90
7117;DHT22;3600;48.568;7.870;2022-09-14T14:19:48;20.50;99.90
7117;DHT22;3600;48.568;7.870;2022-09-14T14:22:28;20.40;99.90
7117;DHT22;3600;48.568;7.870;2022-09-14T14:24:55;20.40;99.90
7117;DHT22;3600;48.568;7.870;2022-09-14T14:27:45;20.50;99.90
7117;DHT22;3600;48.568;7.870;2022-09-14T14:30:13;20.60;99.90
7117;DHT22;3600;48.568;7.870;2022-09-14T14:32:41;20.60;99.90
7117;DHT22;3600;48.568;7.870;2022-09-14T14:35:16;20.70;99.90
7117;DHT22;3600;48.568;7.870;2022-09-14T14:37:43;20.80;99.90
7117;DHT22;3600;48.568;7.870;2022-09-14T14:40:11;20.80;99.90
7117;DHT22;3600;48.568;7.870;2022-09-14T14:42:38;20.90;99.90
7117;DHT22;3600;48.568;7.870;2022-09-14T14:45:10;20.80;99.90
7117;DHT22;3600;48.568;7.870;2022-09-14T14:47:38;20.90;99.90
7117;DHT22;3600;48.568;7.870;2022-09-14T14:50:15;20.80;99.90
7117;DHT22;3600;48.568;7.870;2022-09-14T14:52:42;20.90;99.90
7117;DHT22;3600;48.568;7.870;2022-09-14T14:55:09;20.90;99.90
7117;DHT22;3600;48.568;7.870;2022-09-14T14:57:36;20.90;99.90
7117;DHT22;3600;48.568;7.870;2022-09-14T15:00:12;20.90;99.90
7117;DHT22;3600;48.568;7.870;2022-09-14T15:02:40;20.90;99.90
7117;DHT22;3600;48.568;7.870;2022-09-14T15:05:08;21.00;99.90
7117;DHT22;3600;48.568;7.870;2022-09-14T15:07:35;21.00;99.90
7117;DHT22;3600;48.568;7.870;2022-09-14T15:10:04;21.10;99.90
7117;DHT22;3600;48.568;7.870;2022-09-14T15:12:31;21.20;99.90
7117;DHT22;3600;48.568;7.870;2022-09-14T15:14:58;21.20;99.90
7117;DHT22;3600;48.568;7.870;2022-09-14T15:17:25;21.20;99.90
7117;DHT22;3600;48.568;7.870;2022-09-14T15:19:52;21.20;99.90
7117;DHT22;3600;48.568;7.870;2022-09-14T15:22:19;21.20;99.90
7117;DHT22;3600;48.568;7.870;2022-09-14T15:24:46;21.10;99.90
7117;DHT22;3600;48.568;7.870;2022-09-14T15:27:12;21.10;99.90
7117;DHT22;3600;48.568;7.870;2022-09-14T15:29:40;21.20;99.90
7117;DHT22;3600;48.568;7.870;2022-09-14T15:32:06;21.20;99.90
7117;DHT22;3600;48.568;7.870;2022-09-14T15:34:33;21.30;99.90
7117;DHT22;3600;48.568;7.870;2022-09-14T15:37:00;21.30;99.90
7117;DHT22;3600;48.568;7.870;2022-09-14T15:39:29;21.30;99.90
7117;DHT22;3600;48.568;7.870;2022-09-14T15:41:57;21.40;99.90
7117;DHT22;3600;48.568;7.870;2022-09-14T15:44:24;21.30;99.90
7117;DHT22;3600;48.568;7.870;2022-09-14T15:46:51;21.30;99.90
7117;DHT22;3600;48.568;7.870;2022-09-14T15:49:23;21.30;99.90
7117;DHT22;3600;48.568;7.870;2022-09-14T15:51:52;21.40;99.90
7117;DHT22;3600;48.568;7.870;2022-09-14T15:54:20;21.50;99.90
7117;DHT22;3600;48.568;7.870;2022-09-14T15:56:55;21.70;99.90
7117;DHT22;3600;48.568;7.870;2022-09-14T15:59:25;21.90;99.90
7117;DHT22;3600;48.568;7.870;2022-09-14T16:01:53;22.00;99.90
7117;DHT22;3600;48.568;7.870;2022-09-14T16:04:20;22.00;99.90
7117;DHT22;3600;48.568;7.870;2022-09-14T16:06:47;22.10;99.90
7117;DHT22;3600;48.568;7.870;2022-09-14T16:09:16;22.20;99.90
7117;DHT22;3600;48.568;7.870;2022-09-14T16:11:43;22.20;99.90
7117;DHT22;3600;48.568;7.870;2022-09-14T16:14:10;22.10;99.90
7117;DHT22;3600;48.568;7.870;2022-09-14T16:16:37;22.00;99.90
7117;DHT22;3600;48.568;7.870;2022-09-14T16:19:09;21.90;99.90
7117;DHT22;3600;48.568;7.870;2022-09-14T16:21:37;21.90;99.90
7117;DHT22;3600;48.568;7.870;2022-09-14T16:24:07;21.70;99.90
7117;DHT22;3600;48.568;7.870;2022-09-14T16:26:35;21.70;99.90
7117;DHT22;3600;48.568;7.870;2022-09-14T16:29:04;21.60;99.90
7117;DHT22;3600;48.568;7.870;2022-09-14T16:31:34;21.60;99.90
7117;DHT22;3600;48.568;7.870;2022-09-14T16:34:09;21.50;99.90
7117;DHT22;3600;48.568;7.870;2022-09-14T16:36:38;21.40;99.90
7117;DHT22;3600;48.568;7.870;2022-09-14T16:39:08;21.40;99.90
7117;DHT22;3600;48.568;7.870;2022-09-14T16:41:35;21.40;99.90
7117;DHT22;3600;48.568;7.870;2022-09-14T16:44:05;21.40;99.90
7117;DHT22;3600;48.568;7.870;2022-09-14T16:46:32;21.30;99.90
7117;DHT22;3600;48.568;7.870;2022-09-14T16:48:59;21.20;99.90
7117;DHT22;3600;48.568;7.870;2022-09-14T16:51:29;21.20;99.90
7117;DHT22;3600;48.568;7.870;2022-09-14T16:53:57;21.20;99.90
7117;DHT22;3600;48.568;7.870;2022-09-14T16:56:28;21.10;99.90
7117;DHT22;3600;48.568;7.870;2022-09-14T16:58:55;21.10;99.90
7117;DHT22;3600;48.568;7.870;2022-09-14T17:03:53;21.10;99.90
7117;DHT22;3600;48.568;7.870;2022-09-14T17:06:29;21.10;99.90
7117;DHT22;3600;48.568;7.870;2022-09-14T17:09:02;21.00;99.90
7117;DHT22;3600;48.568;7.870;2022-09-14T17:11:31;21.10;99.90
7117;DHT22;3600;48.568;7.870;2022-09-14T17:13:58;21.00;99.90
7117;DHT22;3600;48.568;7.870;2022-09-14T17:16:26;21.00;99.90
7117;DHT22;3600;48.568;7.870;2022-09-14T17:18:56;21.00;99.90
7117;DHT22;3600;48.568;7.870;2022-09-14T17:21:27;21.00;99.90
7117;DHT22;3600;48.568;7.870;2022-09-14T17:23:55;20.90;99.90
7117;DHT22;3600;48.568;7.870;2022-09-14T17:26:28;20.90;99.90
7117;DHT22;3600;48.568;7.870;2022-09-14T17:28:57;20.90;99.90
7117;DHT22;3600;48.568;7.870;2022-09-14T17:31:28;20.80;99.90
7117;DHT22;3600;48.568;7.870;2022-09-14T17:33:57;20.80;99.90
7117;DHT22;3600;48.568;7.870;2022-09-14T17:36:24;20.80;99.90
7117;DHT22;3600;48.568;7.870;2022-09-14T17:38:51;20.80;99.90
7117;DHT22;3600;48.568;7.870;2022-09-14T17:41:22;20.70;99.90
7117;DHT22;3600;48.568;7.870;2022-09-14T17:43:54;20.70;99.90
7117;DHT22;3600;48.568;7.870;2022-09-14T17:46:22;20.70;99.90
7117;DHT22;3600;48.568;7.870;2022-09-14T17:48:50;20.80;99.90
7117;DHT22;3600;48.568;7.870;2022-09-14T17:51:20;20.70;99.90
7117;DHT22;3600;48.568;7.870;2022-09-14T17:53:50;20.60;99.90
7117;DHT22;3600;48.568;7.870;2022-09-14T17:56:20;20.70;99.90
7117;DHT22;3600;48.568;7.870;2022-09-14T17:58:49;20.70;99.90
7117;DHT22;3600;48.568;7.870;2022-09-14T18:01:22;20.70;99.90
7117;DHT22;3600;48.568;7.870;2022-09-14T18:03:55;20.60;99.90
7117;DHT22;3600;48.568;7.870;2022-09-14T18:06:25;20.60;99.90
7117;DHT22;3600;48.568;7.870;2022-09-14T18:08:53;20.50;99.90
7117;DHT22;3600;48.568;7.870;2022-09-14T18:11:21;20.60;99.90
7117;DHT22;3600;48.568;7.870;2022-09-14T18:13:48;20.50;99.90
7117;DHT22;3600;48.568;7.870;2022-09-14T18:16:17;20.40;99.90
7117;DHT22;3600;48.568;7.870;2022-09-14T18:18:44;20.50;99.90
7117;DHT22;3600;48.568;7.870;2022-09-14T18:21:12;20.40;99.90
7117;DHT22;3600;48.568;7.870;2022-09-14T18:23:40;20.50;99.90
7117;DHT22;3600;48.568;7.870;2022-09-14T18:26:07;20.40;99.90